KSIK/SIK METAR and TAF weather

Enter ICAO airport designator
Station Type Date Time Source
KSIK METAR 2021/09/24 03:35 UTC NOAA

KSIK 240335Z AUTO 00000KT 10SM CLR 13/12 A3008 RMK AO2 TSNO


Station Type Date Time Source
KSIK Decoded METAR 2021/09/24 03:35 UTC NOAA

Station name not available
Sep 23, 2021 - 11:35 PM EDT / 2021.09.24 0335 UTC
Wind: Calm:0
Visibility: 10 mile(s):0
Sky conditions: clear
Temperature: 55 F (13 C)
Dew Point: 53 F (12 C)
Relative Humidity: 93%
Pressure (altimeter): 30.08 in. Hg (1018 hPa)
ob: KSIK 240335Z AUTO 00000KT 10SM CLR 13/12 A3008 RMK AO2 TSNO
cycle: 3

Station Type Date Time Source
KSIK TAF UTC NOAA

Error!

Example: see airport list